windsock image

Welcome to Bigfield Strip.

anemometer image
     

 Help for dials.  
 
Local Met:

Wind:   
10 Min average:  
126 ° / 5.9 kts (7.8)
98° / 3.4

Temperature:  
18.9°C C
Dew Point:  
14.6°C C
QNH:  
Trend:  
1014.2 hpa mb
+0.0hPa/hr
BigField Strip. This image updates approximately every minute, it can have a two minute delay.  
 

Humidity:  
76 %
Sunrise:   05:53z
Sunset:   18:00z
Updated:  
  UTC
 
   More met info, trends, radar, history etc. available here   

LUTON Metar   EGGW 262020Z AUTO 10007KT 9999 NCD 17/13 Q1015
 
  TAF   2017/05/26 18:15 TAF EGGW 261658Z 2618/2718 12012KT CAVOK PROB30 2702/2706 6000 BECMG 2706/2709 19010KT PROB30 TEMPO 2706/2710 4000 +TSRA BKN009 BKN045CB
 
BENSON Metar   EGUB 261950Z AUTO 09010KT 9999 // NCD 21/13 Q1014
 
  TAF   2017/05/26 16:12 TAF TAF EGUB 261603Z 2616/2618 CNL
 
Big Field view 1 icon   Big Field view 2 icon   Big Field view 3 icon   Chart AL3a in PDF icon   Chart AL3a in Word icon

WARNING:
This information is provided by the Airstrip unofficial weather station, DO NOT depend on the data provided here for any purpose.
This page is updated for latest Metars & TAF's every 5 minutes. Refresh the browser to check for the lastest.
Page designed for a minimum browser size of 1024x768.
© Copyright 2017 BigField Strip. This page auto generated 20:36 UTC - 26/05/2017   Contact Us
Valid HTML 4.01 Transitional     Windows uptime: 4 Days 12 Hours 32 Minutes 2 Seconds    WD started: 08:10 22/05/17    Free memory: 1453MB     Valid CSS!